Time;durP1;ratioP1;P1;durP2;ratioP2;P2;SDS_P1;SDS_P2;PMS_P1;PMS_P2;Temp;Humidity;BMP_temperature;BMP_pressure;BME280_temperature;BME280_humidity;BME280_pressure;Samples;Min_cycle;Max_cycle;Signal;HPM_P1;HPM_P2
2022/03/13 00:02:16;;;;;;;8.53;6.10;;;;;;;-0.79;43.37;96635.88;5031308;28;20489;-70
2022/03/13 00:04:48;;;;;;;10.33;7.33;;;;;;;-0.95;43.97;96622.75;5032460;28;20468;-70
2022/03/13 00:07:19;;;;;;;9.50;6.50;;;;;;;-0.88;43.11;96639.94;5064263;28;20464;-70
2022/03/13 00:09:50;;;;;;;6.43;5.83;;;;;;;-1.09;43.42;96600.81;5014514;28;20458;-70
2022/03/13 00:12:26;;;;;;;11.40;6.50;;;;;;;-1.03;44.24;96623.19;5032382;28;20516;-70
2022/03/13 00:14:56;;;;;;;9.23;5.60;;;;;;;-0.96;43.44;96620.41;5032196;28;20870;-70
2022/03/13 00:17:29;;;;;;;7.10;5.60;;;;;;;-0.81;43.38;96630.13;5031063;28;20927;-71
2022/03/13 00:20:00;;;;;;;17.43;5.57;;;;;;;-0.96;43.31;96615.22;5014134;28;20467;-72
2022/03/13 00:22:28;;;;;;;7.20;6.43;;;;;;;-0.96;43.15;96620.41;5032067;28;20511;-72
2022/03/13 00:24:55;;;;;;;9.00;6.77;;;;;;;-0.86;42.79;96630.88;5030698;28;20564;-72
2022/03/13 00:27:22;;;;;;;6.57;5.70;;;;;;;-1.01;42.96;96620.34;5030738;28;20982;-71
2022/03/13 00:29:50;;;;;;;6.97;5.40;;;;;;;-1.10;42.94;96601.84;5030667;28;20428;-72
2022/03/13 00:32:17;;;;;;;7.57;6.00;;;;;;;-1.14;42.82;96605.19;5031938;28;20854;-72
2022/03/13 00:34:45;;;;;;;6.57;5.47;;;;;;;-0.92;43.09;96614.50;5031820;28;20537;-72
2022/03/13 00:37:12;;;;;;;8.53;5.87;;;;;;;-0.87;42.88;96626.72;5017346;28;20917;-72
2022/03/13 00:39:39;;;;;;;6.73;5.80;;;;;;;-1.12;43.29;96592.75;5031725;28;20469;-72
2022/03/13 00:42:07;;;;;;;7.80;6.90;;;;;;;-0.94;43.27;96628.72;5028134;28;20857;-72
2022/03/13 00:44:34;;;;;;;8.50;5.60;;;;;;;-1.13;43.51;96606.75;5027149;28;20474;-72
2022/03/13 00:47:00;;;;;;;11.00;5.93;;;;;;;-1.05;43.33;96627.06;5046652;28;20447;-72
2022/03/13 00:49:27;;;;;;;11.63;7.63;;;;;;;-1.07;43.70;96624.72;5013952;28;20520;-72
2022/03/13 00:51:57;;;;;;;12.87;8.97;;;;;;;-1.07;43.53;96616.94;5030190;28;20471;-72
2022/03/13 00:54:23;;;;;;;17.80;11.60;;;;;;;-1.12;44.04;96616.88;5030148;28;21064;-72
2022/03/13 00:56:50;;;;;;;21.30;11.80;;;;;;;-1.10;44.21;96616.63;5029977;28;20964;-72
2022/03/13 00:59:17;;;;;;;17.07;11.73;;;;;;;-1.12;44.76;96616.09;5030001;28;20443;-72
2022/03/13 01:01:43;;;;;;;14.40;10.07;;;;;;;-1.24;44.99;96598.84;5030336;28;20866;-72
2022/03/13 01:04:12;;;;;;;13.80;8.67;;;;;;;-1.39;44.83;96619.44;5031327;28;20460;-72
2022/03/13 01:06:40;;;;;;;17.03;10.53;;;;;;;-1.72;44.96;96584.06;5029912;28;20544;-72
2022/03/13 01:09:07;;;;;;;17.47;12.57;;;;;;;-1.73;45.09;96586.91;5031301;28;20436;-72
2022/03/13 01:11:34;;;;;;;17.20;11.03;;;;;;;-1.70;45.30;96581.25;5029841;28;20562;-72
2022/03/13 01:14:01;;;;;;;12.97;9.50;;;;;;;-1.67;45.50;96575.56;5029848;28;20538;-72
2022/03/13 01:16:34;;;;;;;16.47;10.07;;;;;;;-1.76;45.60;96564.84;5008257;28;20476;-72
2022/03/13 01:19:01;;;;;;;17.00;10.53;;;;;;;-1.36;45.26;96600.78;4993887;28;20451;-72
2022/03/13 01:21:30;;;;;;;12.50;10.00;;;;;;;-1.34;45.24;96601.34;5016659;28;20928;-72
2022/03/13 01:24:00;;;;;;;14.17;9.17;;;;;;;-1.33;45.54;96591.78;5030936;28;20534;-72
2022/03/13 01:26:26;;;;;;;9.67;7.13;;;;;;;-1.35;45.25;96592.00;5029721;28;20523;-72
2022/03/13 01:28:58;;;;;;;8.60;7.70;;;;;;;-1.47;45.69;96580.97;5029565;28;20494;-72
2022/03/13 01:31:27;;;;;;;10.50;6.77;;;;;;;-1.40;45.90;96575.59;5029047;28;20517;-72
2022/03/13 01:33:55;;;;;;;9.10;6.97;;;;;;;-1.43;45.68;96599.44;5045860;28;20463;-72
2022/03/13 01:36:22;;;;;;;10.40;7.37;;;;;;;-1.60;45.90;96592.50;5021026;28;20532;-72
2022/03/13 01:38:52;;;;;;;10.27;5.90;;;;;;;-1.58;46.08;96589.69;5011558;28;20547;-72
2022/03/13 01:41:20;;;;;;;7.47;5.80;;;;;;;-2.45;45.92;96476.47;5036765;28;20538;-71
2022/03/13 01:43:48;;;;;;;11.00;6.70;;;;;;;-1.68;46.60;96592.94;5026973;28;20525;-71
2022/03/13 01:46:15;;;;;;;7.57;6.87;;;;;;;-1.87;45.75;96565.72;5013146;28;20438;-71
2022/03/13 01:48:55;;;;;;;6.77;6.07;;;;;;;-1.63;46.28;96582.59;5029359;28;20443;-71
2022/03/13 01:51:22;;;;;;;10.17;6.27;;;;;;;-1.93;46.96;96561.53;5045963;28;21015;-71
2022/03/13 01:53:52;;;;;;;7.57;5.70;;;;;;;-1.67;46.68;96588.53;5012918;28;20549;-71
2022/03/13 01:56:18;;;;;;;6.87;6.20;;;;;;;-1.75;47.19;96575.97;5062579;28;20486;-71
2022/03/13 01:58:49;;;;;;;8.73;6.40;;;;;;;-1.70;47.43;96589.81;5029509;28;20869;-71
2022/03/13 02:01:18;;;;;;;7.63;5.90;;;;;;;-2.04;48.26;96557.22;5013019;28;20504;-71
2022/03/13 02:03:45;;;;;;;9.00;7.17;;;;;;;-1.98;48.27;96582.19;5062353;28;20464;-71
2022/03/13 02:06:12;;;;;;;8.20;5.87;;;;;;;-2.04;48.26;96580.53;5029235;28;20439;-71
2022/03/13 02:08:39;;;;;;;7.37;5.73;;;;;;;-2.09;49.12;96578.69;5029280;28;20793;-71
2022/03/13 02:11:06;;;;;;;10.83;5.77;;;;;;;-2.19;49.42;96581.91;5030420;28;20486;-71
2022/03/13 02:13:34;;;;;;;7.37;5.70;;;;;;;-2.25;49.68;96566.56;5045625;28;20527;-71
2022/03/13 02:16:01;;;;;;;9.93;6.00;;;;;;;-2.31;49.42;96565.69;5029062;28;20466;-71
2022/03/13 02:18:28;;;;;;;7.83;5.73;;;;;;;-2.49;49.65;96537.50;5062227;28;20431;-71
2022/03/13 02:20:55;;;;;;;7.33;5.60;;;;;;;-2.42;50.62;96544.06;5029032;28;20505;-71
2022/03/13 02:23:22;;;;;;;7.60;6.53;;;;;;;-2.53;52.58;96551.94;5045502;28;20435;-71
2022/03/13 02:25:56;;;;;;;8.73;6.37;;;;;;;-2.52;54.33;96540.56;5013088;28;20451;-70
2022/03/13 02:28:26;;;;;;;7.60;6.67;;;;;;;-2.84;54.60;96524.81;5029046;28;20440;-70
2022/03/13 02:30:58;;;;;;;6.97;5.63;;;;;;;-2.44;54.03;96561.63;5062207;28;20442;-70
2022/03/13 02:33:25;;;;;;;8.23;5.60;;;;;;;-2.46;52.35;96566.25;5045359;28;20493;-70
2022/03/13 02:36:02;;;;;;;11.37;6.87;;;;;;;-2.37;52.33;96558.88;5025877;28;20438;-71
2022/03/13 02:38:31;;;;;;;8.97;6.50;;;;;;;-2.27;52.33;96560.81;5025580;28;20436;-71
2022/03/13 02:40:58;;;;;;;12.53;7.80;;;;;;;-2.38;52.39;96558.09;5016934;28;20589;-71
2022/03/13 02:43:25;;;;;;;7.27;6.23;;;;;;;-2.51;50.86;96542.13;5014659;28;20435;-71
2022/03/13 02:45:55;;;;;;;11.40;7.83;;;;;;;-2.72;51.08;96551.38;5006298;28;20546;-71
2022/03/13 02:48:21;;;;;;;14.60;5.80;;;;;;;-3.08;50.29;96531.94;5033850;28;20500;-71
2022/03/13 02:50:48;;;;;;;8.80;6.30;;;;;;;-3.32;50.85;96531.28;5032525;28;20443;-71
2022/03/13 02:53:17;;;;;;;6.70;6.00;;;;;;;-3.13;50.46;96553.31;5033762;28;20450;-71
2022/03/13 02:55:44;;;;;;;8.07;5.80;;;;;;;-3.48;50.98;96512.13;5032464;28;20829;-71
2022/03/13 02:58:12;;;;;;;9.10;5.57;;;;;;;-3.33;50.96;96524.56;5032606;28;20431;-71
2022/03/13 03:00:44;;;;;;;8.57;6.40;;;;;;;-2.99;50.82;96558.97;5032409;28;20551;-71
2022/03/13 03:03:19;;;;;;;6.10;4.87;;;;;;;-3.07;50.09;96560.16;5033628;28;20761;-71
2022/03/13 03:05:47;;;;;;;6.97;6.23;;;;;;;-3.02;49.65;96559.44;5032432;28;20822;-71
2022/03/13 03:08:13;;;;;;;10.70;6.57;;;;;;;-3.21;49.48;96507.16;5032164;28;20489;-71
2022/03/13 03:10:40;;;;;;;10.33;6.03;;;;;;;-2.81;48.17;96561.31;5032035;28;20546;-71
2022/03/13 03:13:09;;;;;;;7.70;6.87;;;;;;;-2.83;48.30;96547.84;5034018;28;20829;-71
2022/03/13 03:15:36;;;;;;;9.67;7.23;;;;;;;-2.78;48.40;96555.72;5033445;28;20537;-71
2022/03/13 03:18:04;;;;;;;14.40;8.33;;;;;;;-2.83;47.80;96552.25;5065425;28;20432;-71
2022/03/13 03:20:31;;;;;;;12.30;7.40;;;;;;;-2.79;47.93;96541.22;5031965;28;20491;-71
2022/03/13 03:22:58;;;;;;;14.87;9.50;;;;;;;-2.79;48.46;96543.78;5032043;28;20469;-71
2022/03/13 03:25:26;;;;;;;8.33;6.87;;;;;;;-2.65;49.02;96567.53;5033293;28;20572;-71
2022/03/13 03:27:55;;;;;;;8.53;6.57;;;;;;;-2.59;49.24;96565.81;5031789;28;20434;-71
2022/03/13 03:30:24;;;;;;;12.13;7.30;;;;;;;-2.60;48.89;96566.81;5048361;28;20478;-71
2022/03/13 03:32:52;;;;;;;8.53;6.57;;;;;;;-2.69;48.55;96567.22;5048321;28;20878;-72
2022/03/13 03:35:21;;;;;;;10.00;7.47;;;;;;;-3.00;49.68;96555.59;5033133;28;20490;-71
2022/03/13 03:37:49;;;;;;;8.87;6.17;;;;;;;-3.15;50.02;96565.69;5032161;28;20459;-71
2022/03/13 03:40:16;;;;;;;7.63;6.83;;;;;;;-3.34;49.93;96569.50;5025994;28;20587;-71
2022/03/13 03:42:43;;;;;;;7.37;5.67;;;;;;;-3.59;50.41;96531.88;5031609;28;20437;-71
2022/03/13 03:45:10;;;;;;;8.73;5.10;;;;;;;-3.80;50.68;96506.66;5031735;28;20550;-71
2022/03/13 03:47:37;;;;;;;9.93;5.70;;;;;;;-3.68;50.46;96530.66;5031548;28;20439;-71
2022/03/13 03:50:05;;;;;;;5.80;5.23;;;;;;;-3.44;49.89;96556.41;5015213;28;20443;-71
2022/03/13 03:52:32;;;;;;;9.80;6.43;;;;;;;-3.37;49.81;96557.81;5047914;28;20452;-71
2022/03/13 03:54:58;;;;;;;9.80;6.70;;;;;;;-3.33;49.14;96550.41;5030664;28;20609;-71
2022/03/13 03:57:25;;;;;;;9.60;6.50;;;;;;;-3.23;49.13;96568.66;5065001;28;20803;-71
2022/03/13 03:59:52;;;;;;;13.10;7.50;;;;;;;-3.27;48.91;96542.50;5031193;28;20493;-71
2022/03/13 04:02:18;;;;;;;14.40;8.37;;;;;;;-3.20;49.29;96550.13;5031183;28;20501;-71
2022/03/13 04:04:46;;;;;;;10.10;7.63;;;;;;;-3.03;48.36;96570.81;5014728;28;20495;-71
2022/03/13 04:07:13;;;;;;;12.47;7.57;;;;;;;-3.25;48.61;96547.44;5032802;28;20853;-71
2022/03/13 04:09:40;;;;;;;14.10;8.37;;;;;;;-3.35;48.93;96536.91;5014601;28;20479;-71
2022/03/13 04:12:08;;;;;;;11.93;8.27;;;;;;;-3.49;48.94;96548.53;5031132;28;20459;-71
2022/03/13 04:14:35;;;;;;;15.87;9.60;;;;;;;-3.37;49.39;96569.97;5014560;28;20553;-71
2022/03/13 04:17:02;;;;;;;12.50;7.23;;;;;;;-3.38;49.53;96565.81;5014644;28;20489;-71
2022/03/13 04:19:30;;;;;;;10.60;7.33;;;;;;;-3.33;49.51;96577.03;5031165;28;20436;-71
2022/03/13 04:21:56;;;;;;;11.43;7.27;;;;;;;-3.30;49.48;96573.97;5030801;28;20474;-71
2022/03/13 04:24:24;;;;;;;10.70;6.90;;;;;;;-3.25;50.18;96580.25;5030672;28;20472;-71
2022/03/13 04:26:51;;;;;;;9.23;7.80;;;;;;;-3.38;50.57;96555.47;5030838;28;20471;-71
2022/03/13 04:29:18;;;;;;;11.63;7.43;;;;;;;-3.38;50.71;96566.59;5030652;28;20857;-71
2022/03/13 04:31:46;;;;;;;10.03;6.10;;;;;;;-3.48;51.44;96535.41;5030698;28;20472;-71
2022/03/13 04:34:16;;;;;;;18.20;7.63;;;;;;;-3.40;51.76;96570.44;5014427;28;20550;-71
2022/03/13 04:36:44;;;;;;;7.83;6.47;;;;;;;-3.37;51.48;96575.13;5019293;28;20484;-71
2022/03/13 04:39:10;;;;;;;11.07;7.63;;;;;;;-3.43;50.86;96550.22;5029047;28;20446;-72
2022/03/13 04:41:38;;;;;;;9.80;6.43;;;;;;;-3.30;50.67;96563.63;5030505;28;20507;-71
2022/03/13 04:44:14;;;;;;;7.80;5.63;;;;;;;-3.22;50.14;96574.59;5030317;28;20521;-71
2022/03/13 04:46:42;;;;;;;8.63;6.27;;;;;;;-3.28;50.69;96566.00;5030522;28;20469;-71
2022/03/13 04:49:09;;;;;;;10.40;7.20;;;;;;;-3.43;50.37;96535.50;5030569;28;20492;-72
2022/03/13 04:51:39;;;;;;;7.37;5.90;;;;;;;-3.27;49.99;96558.00;5031587;28;20785;-71
2022/03/13 04:54:07;;;;;;;10.67;7.20;;;;;;;-3.16;49.80;96577.06;5063589;28;20554;-72
2022/03/13 04:56:34;;;;;;;6.90;5.23;;;;;;;-3.20;49.77;96572.59;5063498;28;20501;-71
2022/03/13 04:59:00;;;;;;;8.23;5.70;;;;;;;-3.35;49.73;96583.44;5046786;28;20585;-71
2022/03/13 05:01:27;;;;;;;8.93;6.10;;;;;;;-3.66;49.77;96544.13;5030152;28;20923;-71
2022/03/13 05:03:54;;;;;;;12.17;6.10;;;;;;;-3.58;49.41;96566.22;5030098;28;20463;-71
2022/03/13 05:06:21;;;;;;;6.40;5.80;;;;;;;-3.87;50.17;96526.69;5029098;28;20866;-71
2022/03/13 05:08:49;;;;;;;8.00;5.50;;;;;;;-3.46;50.29;96581.69;5030220;28;20880;-71
2022/03/13 05:11:17;;;;;;;9.27;6.23;;;;;;;-3.37;49.53;96583.66;5030036;28;20804;-71
2022/03/13 05:13:44;;;;;;;8.10;6.70;;;;;;;-3.41;50.21;96589.53;5032844;28;20865;-71
2022/03/13 05:16:12;;;;;;;7.73;6.03;;;;;;;-3.55;50.72;96560.59;5030929;28;20952;-71
2022/03/13 05:18:39;;;;;;;7.57;6.80;;;;;;;-3.47;51.19;96588.66;5031488;28;20436;-71
2022/03/13 05:21:06;;;;;;;8.50;6.87;;;;;;;-3.47;51.36;96583.50;5031284;28;20466;-71
2022/03/13 05:23:33;;;;;;;6.43;5.70;;;;;;;-3.45;51.97;96589.22;5031421;28;20816;-71
2022/03/13 05:25:59;;;;;;;9.30;7.23;;;;;;;-3.34;51.32;96592.75;5029973;28;20470;-71
2022/03/13 05:28:26;;;;;;;13.97;7.13;;;;;;;-3.44;51.13;96585.63;5029778;28;20479;-71
2022/03/13 05:30:53;;;;;;;8.00;7.20;;;;;;;-3.36;50.88;96590.41;5030056;28;20419;-71
2022/03/13 05:33:20;;;;;;;8.87;6.53;;;;;;;-3.33;51.47;96608.06;5030104;28;20521;-72
2022/03/13 05:35:50;;;;;;;8.43;6.83;;;;;;;-3.37;51.09;96606.13;5027259;28;20858;-71
2022/03/13 05:38:17;;;;;;;9.23;7.40;;;;;;;-3.67;51.76;96563.22;5010234;28;20432;-71
2022/03/13 05:40:44;;;;;;;9.10;7.33;;;;;;;-3.40;52.05;96609.19;5027381;28;20492;-71
2022/03/13 05:43:15;;;;;;;9.00;6.50;;;;;;;-3.46;51.43;96599.78;5030179;28;20435;-71
2022/03/13 05:45:47;;;;;;;8.37;6.17;;;;;;;-3.40;52.04;96607.41;5031698;28;20427;-72
2022/03/13 05:48:17;;;;;;;8.40;6.50;;;;;;;-3.47;52.03;96603.34;5030040;28;20889;-72
2022/03/13 05:50:45;;;;;;;8.23;7.37;;;;;;;-3.57;51.87;96609.94;5014908;28;20439;-71
2022/03/13 05:53:13;;;;;;;8.63;7.13;;;;;;;-3.63;51.31;96597.13;5014638;28;20469;-72
2022/03/13 05:55:39;;;;;;;12.10;8.50;;;;;;;-3.42;50.89;96613.81;5015764;28;20459;-72
2022/03/13 05:58:06;;;;;;;10.63;9.23;;;;;;;-3.48;50.33;96591.47;5030777;28;20509;-73
2022/03/13 06:00:33;;;;;;;13.67;9.23;;;;;;;-3.47;50.46;96593.03;5024231;28;20432;-71
2022/03/13 06:03:01;;;;;;;8.80;7.27;;;;;;;-3.24;50.13;96623.97;5013236;28;20432;-73
2022/03/13 06:05:30;;;;;;;8.43;7.60;;;;;;;-3.11;49.33;96623.69;5014468;28;20975;-73
2022/03/13 06:08:00;;;;;;;10.00;7.50;;;;;;;-3.08;49.09;96630.19;5063578;28;20436;-73
2022/03/13 06:10:29;;;;;;;10.63;7.30;;;;;;;-3.02;49.24;96632.66;5033333;28;20447;-72
2022/03/13 06:12:55;;;;;;;10.10;6.80;;;;;;;-3.05;49.31;96617.59;5033667;28;20424;-71
2022/03/13 06:15:23;;;;;;;11.20;6.13;;;;;;;-2.90;49.07;96630.00;5022754;28;20464;-71
2022/03/13 06:17:51;;;;;;;8.97;5.17;;;;;;;-2.84;49.02;96638.63;5014409;28;20861;-71
2022/03/13 06:20:18;;;;;;;9.63;6.50;;;;;;;-2.92;49.33;96634.63;5067226;28;21002;-71
2022/03/13 06:22:47;;;;;;;10.23;5.70;;;;;;;-2.83;49.00;96633.22;5035147;28;20991;-71
2022/03/13 06:25:14;;;;;;;8.57;7.30;;;;;;;-2.86;48.64;96625.94;5034940;28;20455;-71
2022/03/13 06:27:42;;;;;;;7.33;5.97;;;;;;;-2.86;48.81;96625.16;5034778;28;20434;-72
2022/03/13 06:30:14;;;;;;;9.97;6.67;;;;;;;-2.65;49.10;96645.16;5025155;28;20431;-72
2022/03/13 06:32:43;;;;;;;8.50;6.10;;;;;;;-2.67;48.93;96639.44;5001630;28;20439;-72
2022/03/13 06:35:12;;;;;;;7.20;6.47;;;;;;;-2.62;48.99;96643.91;5034621;28;20454;-72
2022/03/13 06:37:39;;;;;;;9.10;7.50;;;;;;;-2.65;48.43;96639.22;5033627;28;20528;-72
2022/03/13 06:40:14;;;;;;;8.87;6.40;;;;;;;-2.78;48.56;96635.91;5030163;28;20940;-72
2022/03/13 06:42:41;;;;;;;10.17;8.27;;;;;;;-2.59;48.79;96656.38;5034346;28;20807;-72
2022/03/13 06:45:10;;;;;;;10.90;6.47;;;;;;;-2.66;47.81;96630.66;5008105;28;20526;-72
2022/03/13 06:47:38;;;;;;;8.97;6.00;;;;;;;-2.61;47.40;96622.19;5016532;28;20502;-72
2022/03/13 06:50:07;;;;;;;7.33;6.63;;;;;;;-2.46;48.22;96659.44;5049490;28;20435;-71
2022/03/13 06:52:34;;;;;;;6.87;6.10;;;;;;;-2.41;47.26;96636.22;5034361;28;20918;-71
2022/03/13 06:55:04;;;;;;;7.47;6.40;;;;;;;-2.05;47.02;96662.66;5066083;28;20515;-71
2022/03/13 06:57:30;;;;;;;7.80;6.30;;;;;;;-2.08;46.57;96622.47;5049625;28;20874;-71
2022/03/13 06:59:57;;;;;;;7.03;6.33;;;;;;;-1.67;45.72;96663.69;5034026;28;20525;-71
2022/03/13 07:02:25;;;;;;;9.17;7.40;;;;;;;-1.66;45.83;96657.47;5050970;28;20452;-72
2022/03/13 07:04:51;;;;;;;10.27;6.80;;;;;;;-1.58;45.63;96644.13;5037414;28;20455;-72
2022/03/13 07:07:18;;;;;;;8.27;6.57;;;;;;;-1.48;44.81;96642.41;5051350;28;20442;-73
2022/03/13 07:09:45;;;;;;;14.53;6.67;;;;;;;-1.00;44.53;96664.22;5035930;28;20447;-73
2022/03/13 07:12:13;;;;;;;8.40;6.70;;;;;;;-1.06;43.88;96643.66;5050623;28;20861;-74
2022/03/13 07:14:47;;;;;;;8.20;6.77;;;;;;;-0.80;43.61;96666.25;5032593;28;20473;-71
2022/03/13 07:17:15;;;;;;;7.13;6.17;;;;;;;-0.69;43.30;96664.50;5033373;28;20476;-72
2022/03/13 07:19:45;;;;;;;7.23;6.53;;;;;;;-0.60;43.22;96652.66;5034358;28;20428;-72
2022/03/13 07:22:14;;;;;;;8.10;7.40;;;;;;;-0.49;42.70;96672.50;5034954;28;20459;-72
2022/03/13 07:24:42;;;;;;;10.50;8.10;;;;;;;-0.41;42.56;96673.84;5035176;28;20497;-71
2022/03/13 07:27:09;;;;;;;8.53;6.27;;;;;;;-0.28;42.85;96670.03;5052356;28;20539;-71
2022/03/13 07:29:36;;;;;;;8.67;5.30;;;;;;;-0.13;42.43;96667.59;5033803;28;20430;-71
2022/03/13 07:32:03;;;;;;;9.80;7.00;;;;;;;-0.23;41.99;96641.53;5024047;28;20425;-71
2022/03/13 07:34:30;;;;;;;7.03;6.20;;;;;;;0.17;41.82;96659.97;5041397;28;20475;-71
2022/03/13 07:36:57;;;;;;;10.20;7.00;;;;;;;0.43;41.69;96662.72;5023767;28;20502;-71
2022/03/13 07:39:24;;;;;;;8.07;5.87;;;;;;;0.47;41.47;96664.56;5038967;28;20427;-71
2022/03/13 07:41:52;;;;;;;6.67;5.97;;;;;;;0.26;40.93;96622.06;5022542;28;20467;-71
2022/03/13 07:44:20;;;;;;;7.30;5.97;;;;;;;0.68;40.39;96668.03;5040257;28;20472;-71
2022/03/13 07:46:46;;;;;;;7.43;6.60;;;;;;;0.89;40.82;96653.28;5017856;28;20449;-71
2022/03/13 07:49:13;;;;;;;13.33;7.07;;;;;;;0.72;40.21;96632.66;5025241;28;20443;-70
2022/03/13 07:51:43;;;;;;;10.07;6.50;;;;;;;0.77;40.64;96650.09;5042416;28;20433;-71
2022/03/13 07:54:11;;;;;;;7.67;6.30;;;;;;;1.23;39.90;96643.22;5035189;28;20478;-71
2022/03/13 07:56:38;;;;;;;11.60;7.40;;;;;;;0.76;40.65;96615.50;5028331;28;20452;-71
2022/03/13 07:59:04;;;;;;;6.63;5.80;;;;;;;1.25;40.52;96617.69;5030983;28;20471;-70
2022/03/13 08:01:31;;;;;;;10.40;6.33;;;;;;;1.11;40.26;96612.19;5076859;28;20825;-71
2022/03/13 08:04:04;;;;;;;10.60;6.67;;;;;;;1.33;41.18;96624.19;5067045;28;20472;-70
2022/03/13 08:06:34;;;;;;;9.53;6.90;;;;;;;1.25;39.71;96645.53;5050449;28;20423;-71
2022/03/13 08:09:04;;;;;;;7.90;5.97;;;;;;;1.32;39.37;96617.41;5040939;28;20424;-71
2022/03/13 08:11:34;;;;;;;7.93;6.33;;;;;;;1.22;39.59;96633.84;5049253;28;20505;-70
2022/03/13 08:14:01;;;;;;;9.03;5.77;;;;;;;1.42;38.71;96617.44;5036024;28;20455;-71
2022/03/13 08:16:28;;;;;;;9.60;6.60;;;;;;;1.29;39.19;96630.97;5041253;28;20475;-72
2022/03/13 08:18:56;;;;;;;12.57;7.47;;;;;;;1.45;38.92;96628.09;5019273;28;20431;-71
2022/03/13 08:21:23;;;;;;;9.10;6.13;;;;;;;1.62;38.26;96635.69;5029227;28;20453;-72
2022/03/13 08:23:51;;;;;;;9.40;6.83;;;;;;;1.64;38.93;96638.81;5017455;28;20560;-70
2022/03/13 08:26:18;;;;;;;7.30;6.60;;;;;;;1.32;38.71;96593.97;5035762;28;20439;-72
2022/03/13 08:28:45;;;;;;;9.60;6.17;;;;;;;2.05;37.42;96628.34;5035343;28;20519;-71
2022/03/13 08:31:12;;;;;;;8.80;6.50;;;;;;;1.65;38.82;96600.50;5052450;28;20467;-72
2022/03/13 08:33:39;;;;;;;8.43;6.47;;;;;;;2.20;38.10;96638.72;5036195;28;20462;-70
2022/03/13 08:36:07;;;;;;;9.93;7.50;;;;;;;2.02;38.13;96634.09;5029068;28;20525;-70
2022/03/13 08:38:34;;;;;;;9.60;6.40;;;;;;;2.17;38.60;96634.06;5029881;28;20443;-70
2022/03/13 08:41:00;;;;;;;9.13;6.60;;;;;;;2.17;38.13;96610.59;5036046;28;20860;-70
2022/03/13 08:43:27;;;;;;;9.20;7.67;;;;;;;2.24;37.48;96608.47;5035756;28;20472;-70
2022/03/13 08:45:54;;;;;;;7.37;6.67;;;;;;;2.47;38.72;96616.75;5019445;28;20982;-70
2022/03/13 08:48:22;;;;;;;11.13;6.33;;;;;;;2.93;36.86;96641.59;5035849;28;20466;-70
2022/03/13 08:50:48;;;;;;;9.77;7.07;;;;;;;2.67;37.88;96640.13;5069540;28;20519;-71
2022/03/13 08:53:15;;;;;;;9.80;6.73;;;;;;;2.47;37.68;96616.75;5036846;28;20488;-70
2022/03/13 08:55:42;;;;;;;7.17;6.47;;;;;;;2.36;37.87;96571.63;5019146;28;20436;-70
2022/03/13 08:58:08;;;;;;;8.57;7.17;;;;;;;3.05;37.85;96619.59;5056192;28;20445;-70
2022/03/13 09:00:41;;;;;;;9.80;7.60;;;;;;;2.69;37.84;96627.63;5050966;28;20959;-70
2022/03/13 09:03:08;;;;;;;7.87;7.07;;;;;;;2.98;36.65;96619.91;5050127;28;20474;-70
2022/03/13 09:05:35;;;;;;;9.77;8.37;;;;;;;3.00;36.64;96612.56;5017015;28;20458;-71
2022/03/13 09:08:03;;;;;;;10.23;8.10;;;;;;;2.92;37.59;96641.84;5030959;28;20451;-70
2022/03/13 09:10:30;;;;;;;12.40;7.93;;;;;;;3.30;36.86;96626.50;5035672;28;20451;-70
2022/03/13 09:12:57;;;;;;;10.40;7.27;;;;;;;3.09;36.75;96607.56;5023404;28;20474;-70
2022/03/13 09:15:24;;;;;;;8.27;7.47;;;;;;;2.85;37.49;96610.06;5052317;28;21037;-71
2022/03/13 09:17:53;;;;;;;9.70;7.63;;;;;;;2.86;36.82;96622.84;5032782;28;20801;-70
2022/03/13 09:20:22;;;;;;;10.33;8.17;;;;;;;3.28;36.94;96639.06;5027895;28;20515;-70
2022/03/13 09:22:49;;;;;;;8.97;8.03;;;;;;;3.51;36.80;96620.09;5052983;28;20503;-71
2022/03/13 09:25:18;;;;;;;10.77;5.93;;;;;;;3.59;36.25;96634.38;5038712;28;20528;-70
2022/03/13 09:27:45;;;;;;;10.97;8.47;;;;;;;3.34;36.68;96557.75;5039919;28;20445;-71
2022/03/13 09:30:12;;;;;;;9.57;7.30;;;;;;;3.98;35.89;96639.53;5083728;28;20435;-72
2022/03/13 09:32:39;;;;;;;7.70;6.90;;;;;;;4.09;35.72;96633.94;5082448;28;20424;-72
2022/03/13 09:35:07;;;;;;;7.60;6.60;;;;;;;3.94;34.98;96607.94;5048727;28;20452;-72
2022/03/13 09:37:37;;;;;;;8.47;6.10;;;;;;;4.13;35.26;96627.09;5047415;28;20467;-72
2022/03/13 09:40:17;;;;;;;9.80;7.07;;;;;;;4.19;35.58;96642.75;5027366;28;20436;-73
2022/03/13 09:42:45;;;;;;;10.13;6.80;;;;;;;3.97;34.92;96619.69;5031132;28;20503;-72
2022/03/13 09:45:13;;;;;;;8.70;7.90;;;;;;;4.19;35.47;96632.28;5043003;28;20492;-71
2022/03/13 09:47:39;;;;;;;7.83;7.03;;;;;;;4.15;35.00;96640.72;5048820;28;20428;-72
2022/03/13 09:50:08;;;;;;;11.33;7.83;;;;;;;4.27;35.42;96634.28;5049284;28;20411;-72
2022/03/13 09:52:37;;;;;;;10.33;7.50;;;;;;;4.30;35.29;96629.31;5042453;28;20951;-71
2022/03/13 09:55:05;;;;;;;10.53;7.70;;;;;;;4.48;34.50;96617.31;5049993;28;20468;-72
2022/03/13 09:57:33;;;;;;;11.10;7.50;;;;;;;4.35;34.81;96631.84;5045475;28;20440;-73
2022/03/13 10:00:06;;;;;;;9.00;7.13;;;;;;;4.22;34.06;96610.81;5032171;28;20437;-72
2022/03/13 10:02:38;;;;;;;7.10;6.40;;;;;;;4.63;34.67;96625.00;5042530;28;21040;-72
2022/03/13 10:05:16;;;;;;;10.37;8.33;;;;;;;4.52;34.12;96604.44;5047422;28;20491;-70
2022/03/13 10:07:49;;;;;;;9.93;6.63;;;;;;;4.86;34.49;96620.78;5067702;28;20427;-72
2022/03/13 10:10:15;;;;;;;9.90;7.80;;;;;;;5.03;34.75;96620.28;5048359;28;20451;-72
2022/03/13 10:12:42;;;;;;;9.97;6.40;;;;;;;4.93;33.48;96599.47;5083256;28;20952;-72
2022/03/13 10:15:11;;;;;;;8.13;7.33;;;;;;;5.24;34.00;96598.00;5036907;28;20491;-72
2022/03/13 10:17:38;;;;;;;8.27;6.63;;;;;;;5.19;32.94;96620.88;5051011;28;20556;-72
2022/03/13 10:20:27;;;;;;;7.63;6.23;;;;;;;5.24;34.31;96582.28;5053472;28;20440;-72
2022/03/13 10:23:00;;;;;;;12.13;7.63;;;;;;;5.64;34.32;96609.69;5043412;28;20895;-72
2022/03/13 10:25:35;;;;;;;9.30;6.80;;;;;;;5.75;33.75;96609.53;5047171;28;20451;-72
2022/03/13 10:28:22;;;;;;;8.07;6.83;;;;;;;5.98;33.19;96602.59;5050880;28;20419;-72
2022/03/13 10:30:58;;;;;;;10.40;7.27;;;;;;;5.75;32.88;96599.06;5037582;28;20454;-72
2022/03/13 10:33:45;;;;;;;7.10;6.40;;;;;;;5.68;33.36;96594.16;5022204;28;20464;-72
2022/03/13 10:36:19;;;;;;;7.10;6.40;;;;;;;5.74;32.68;96579.09;5026953;28;20441;-72
2022/03/13 10:38:48;;;;;;;9.47;7.40;;;;;;;6.04;31.61;96597.00;5029208;28;20447;-72
2022/03/13 10:41:15;;;;;;;10.23;6.80;;;;;;;6.01;32.78;96589.69;5025260;28;20434;-72
2022/03/13 10:43:49;;;;;;;10.17;7.03;;;;;;;6.00;32.53;96589.97;5038571;28;20472;-72
2022/03/13 10:46:29;;;;;;;8.93;7.77;;;;;;;6.18;32.65;96581.25;5033264;28;20513;-72
2022/03/13 10:48:58;;;;;;;8.20;7.40;;;;;;;6.32;32.26;96561.03;5012014;28;20436;-72
2022/03/13 10:51:51;;;;;;;7.90;7.20;;;;;;;6.60;32.32;96584.66;5035162;28;20438;-71
2022/03/13 10:54:30;;;;;;;9.47;7.53;;;;;;;6.65;32.01;96581.91;5022848;28;20463;-71
2022/03/13 10:57:12;;;;;;;9.77;7.37;;;;;;;6.58;32.14;96577.06;5028600;28;20445;-70
2022/03/13 10:59:42;;;;;;;8.80;6.77;;;;;;;6.61;31.65;96552.03;5014576;28;20499;-71
2022/03/13 11:02:17;;;;;;;9.17;7.13;;;;;;;6.98;31.04;96578.06;5032715;28;20940;-71
2022/03/13 11:04:52;;;;;;;7.57;5.90;;;;;;;7.23;30.53;96537.28;5033702;28;20451;-72
2022/03/13 11:07:20;;;;;;;7.83;7.00;;;;;;;7.26;30.28;96575.34;5049142;28;20530;-71
2022/03/13 11:09:47;;;;;;;8.77;6.97;;;;;;;7.02;30.60;96544.06;5045550;28;20453;-71
2022/03/13 11:12:19;;;;;;;7.13;6.43;;;;;;;6.94;30.58;96550.78;5024331;28;20490;-73
2022/03/13 11:14:50;;;;;;;7.60;5.80;;;;;;;7.06;30.61;96558.16;5032254;28;20464;-73
2022/03/13 11:17:20;;;;;;;7.20;6.50;;;;;;;7.12;29.93;96564.88;5065593;28;20429;-73
2022/03/13 11:19:51;;;;;;;8.53;7.10;;;;;;;7.15;30.68;96553.75;5034092;28;20486;-71
2022/03/13 11:22:20;;;;;;;7.87;6.40;;;;;;;7.82;30.10;96574.00;5033966;28;20527;-71
2022/03/13 11:24:50;;;;;;;11.40;8.97;;;;;;;7.76;29.81;96565.44;5014098;28;20449;-71
2022/03/13 11:27:17;;;;;;;7.80;6.80;;;;;;;7.53;29.48;96558.66;5030309;28;20822;-71
2022/03/13 11:29:52;;;;;;;7.30;6.37;;;;;;;7.43;30.01;96559.66;5033296;28;20452;-71
2022/03/13 11:32:37;;;;;;;8.47;7.53;;;;;;;8.02;29.30;96554.28;5017275;28;20869;-71
2022/03/13 11:35:18;;;;;;;7.50;6.80;;;;;;;8.04;29.20;96555.53;5050086;28;20499;-71
2022/03/13 11:37:48;;;;;;;8.00;7.07;;;;;;;8.16;28.92;96561.00;5005866;28;20444;-71
2022/03/13 11:40:38;;;;;;;8.27;7.37;;;;;;;8.55;28.43;96556.81;5055520;28;20461;-71
2022/03/13 11:43:13;;;;;;;7.63;6.70;;;;;;;8.55;28.42;96531.22;5036892;28;20461;-71